sensor_id;sensor_type;location;lat;lon;timestamp;pressure;altitude;pressure_sealevel;temperature;humidity
63700;BME280;49845;47.130;142.766;2023-02-23T00:00:05;100689.28;;;-7.62;73.48
63700;BME280;49845;47.130;142.766;2023-02-23T00:02:48;100703.72;;;-7.48;74.00
63700;BME280;49845;47.130;142.766;2023-02-23T00:05:20;100715.59;;;-7.20;74.17
63700;BME280;49845;47.130;142.766;2023-02-23T00:07:52;100717.31;;;-7.06;73.75
63700;BME280;49845;47.130;142.766;2023-02-23T00:10:24;100709.41;;;-6.82;73.66
63700;BME280;49845;47.130;142.766;2023-02-23T00:12:58;100714.03;;;-6.62;73.42
63700;BME280;49845;47.130;142.766;2023-02-23T00:15:28;100701.28;;;-6.48;73.24
63700;BME280;49845;47.130;142.766;2023-02-23T00:17:59;100713.00;;;-6.51;72.39
63700;BME280;49845;47.130;142.766;2023-02-23T00:20:31;100705.94;;;-6.41;72.33
63700;BME280;49845;47.130;142.766;2023-02-23T00:23:28;100702.16;;;-6.33;72.06
63700;BME280;49845;47.130;142.766;2023-02-23T00:25:59;100698.03;;;-6.31;71.45
63700;BME280;49845;47.130;142.766;2023-02-23T00:28:32;100700.06;;;-6.25;71.44
63700;BME280;49845;47.130;142.766;2023-02-23T00:31:03;100705.84;;;-5.98;71.82
63700;BME280;49845;47.130;142.766;2023-02-23T00:33:34;100698.25;;;-5.82;70.88
63700;BME280;49845;47.130;142.766;2023-02-23T00:36:06;100693.50;;;-5.76;70.67
63700;BME280;49845;47.130;142.766;2023-02-23T00:38:40;100686.47;;;-5.65;70.25
63700;BME280;49845;47.130;142.766;2023-02-23T00:41:14;100683.81;;;-5.67;69.84
63700;BME280;49845;47.130;142.766;2023-02-23T00:43:47;100686.44;;;-5.50;69.68
63700;BME280;49845;47.130;142.766;2023-02-23T00:46:20;100652.00;;;-5.44;69.08
63700;BME280;49845;47.130;142.766;2023-02-23T00:48:51;100667.53;;;-5.23;68.72
63700;BME280;49845;47.130;142.766;2023-02-23T00:51:23;100684.94;;;-4.99;68.24
63700;BME280;49845;47.130;142.766;2023-02-23T00:54:02;100660.94;;;-5.03;67.54
63700;BME280;49845;47.130;142.766;2023-02-23T00:56:35;100682.22;;;-5.02;66.81
63700;BME280;49845;47.130;142.766;2023-02-23T00:59:08;100654.97;;;-5.03;67.31
63700;BME280;49845;47.130;142.766;2023-02-23T01:01:39;100667.09;;;-4.66;67.26
63700;BME280;49845;47.130;142.766;2023-02-23T01:04:11;100660.22;;;-4.67;66.49
63700;BME280;49845;47.130;142.766;2023-02-23T01:06:42;100663.44;;;-4.71;66.05
63700;BME280;49845;47.130;142.766;2023-02-23T01:09:16;100675.84;;;-4.61;65.87
63700;BME280;49845;47.130;142.766;2023-02-23T01:11:56;100662.28;;;-4.60;65.54
63700;BME280;49845;47.130;142.766;2023-02-23T01:14:29;100675.31;;;-4.38;65.66
63700;BME280;49845;47.130;142.766;2023-02-23T01:17:00;100669.69;;;-4.14;65.61
63700;BME280;49845;47.130;142.766;2023-02-23T01:19:30;100669.22;;;-3.89;65.56
63700;BME280;49845;47.130;142.766;2023-02-23T01:22:02;100657.44;;;-3.67;64.81
63700;BME280;49845;47.130;142.766;2023-02-23T01:24:34;100655.97;;;-3.44;64.65
63700;BME280;49845;47.130;142.766;2023-02-23T01:27:06;100654.53;;;-3.39;63.88
63700;BME280;49845;47.130;142.766;2023-02-23T01:29:36;100656.25;;;-3.38;63.25
63700;BME280;49845;47.130;142.766;2023-02-23T01:32:07;100661.25;;;-3.41;63.53
63700;BME280;49845;47.130;142.766;2023-02-23T01:34:38;100658.84;;;-3.19;62.89
63700;BME280;49845;47.130;142.766;2023-02-23T01:37:08;100652.53;;;-3.08;62.60
63700;BME280;49845;47.130;142.766;2023-02-23T01:39:40;100644.63;;;-2.94;62.66
63700;BME280;49845;47.130;142.766;2023-02-23T01:42:12;100637.06;;;-2.91;62.41
63700;BME280;49845;47.130;142.766;2023-02-23T01:47:53;100637.19;;;-2.69;61.50
63700;BME280;49845;47.130;142.766;2023-02-23T01:50:27;100614.84;;;-2.73;60.79
63700;BME280;49845;47.130;142.766;2023-02-23T01:52:59;100635.78;;;-2.82;61.36
63700;BME280;49845;47.130;142.766;2023-02-23T01:55:32;100631.94;;;-2.72;60.54
63700;BME280;49845;47.130;142.766;2023-02-23T01:58:07;100622.72;;;-2.68;59.78
63700;BME280;49845;47.130;142.766;2023-02-23T02:00:45;100618.59;;;-2.65;59.06
63700;BME280;49845;47.130;142.766;2023-02-23T02:03:24;100623.75;;;-2.44;58.42
63700;BME280;49845;47.130;142.766;2023-02-23T02:05:55;100615.63;;;-2.12;57.81
63700;BME280;49845;47.130;142.766;2023-02-23T02:08:28;100612.50;;;-2.05;57.05
63700;BME280;49845;47.130;142.766;2023-02-23T02:11:01;100609.25;;;-2.01;56.12
63700;BME280;49845;47.130;142.766;2023-02-23T02:13:53;100605.50;;;-1.88;55.83
63700;BME280;49845;47.130;142.766;2023-02-23T02:16:55;100601.31;;;-2.07;55.45
63700;BME280;49845;47.130;142.766;2023-02-23T02:19:59;100596.56;;;-1.55;55.62
63700;BME280;49845;47.130;142.766;2023-02-23T02:26:07;100589.59;;;-1.35;54.16
63700;BME280;49845;47.130;142.766;2023-02-23T02:28:53;100586.88;;;-1.39;53.02
63700;BME280;49845;47.130;142.766;2023-02-23T02:31:57;100580.84;;;-1.17;52.75
63700;BME280;49845;47.130;142.766;2023-02-23T02:35:18;100581.53;;;-1.21;52.72
63700;BME280;49845;47.130;142.766;2023-02-23T02:38:13;100579.22;;;-1.38;51.62
63700;BME280;49845;47.130;142.766;2023-02-23T02:40:52;100551.53;;;-1.70;52.75
63700;BME280;49845;47.130;142.766;2023-02-23T02:43:37;100501.25;;;-2.13;53.05
63700;BME280;49845;47.130;142.766;2023-02-23T02:46:13;100563.53;;;-1.92;52.92
63700;BME280;49845;47.130;142.766;2023-02-23T02:48:49;100490.34;;;-2.30;53.18
63700;BME280;49845;47.130;142.766;2023-02-23T02:51:33;100535.34;;;-2.14;51.75
63700;BME280;49845;47.130;142.766;2023-02-23T02:54:13;100556.28;;;-2.02;52.17
63700;BME280;49845;47.130;142.766;2023-02-23T02:56:46;100549.78;;;-1.71;52.62
63700;BME280;49845;47.130;142.766;2023-02-23T02:59:19;100541.16;;;-1.51;52.78
63700;BME280;49845;47.130;142.766;2023-02-23T03:02:14;100540.84;;;-1.36;51.78
63700;BME280;49845;47.130;142.766;2023-02-23T03:05:02;100527.19;;;-1.11;51.68
63700;BME280;49845;47.130;142.766;2023-02-23T03:07:55;100540.69;;;-0.67;50.17
63700;BME280;49845;47.130;142.766;2023-02-23T03:10:55;100526.06;;;-0.70;50.12
63700;BME280;49845;47.130;142.766;2023-02-23T03:13:51;100528.66;;;-0.68;50.11
63700;BME280;49845;47.130;142.766;2023-02-23T03:16:51;100535.41;;;-0.70;50.00
63700;BME280;49845;47.130;142.766;2023-02-23T03:19:51;100529.56;;;-0.66;49.65
63700;BME280;49845;47.130;142.766;2023-02-23T03:22:45;100526.69;;;-0.75;49.69
63700;BME280;49845;47.130;142.766;2023-02-23T03:25:47;100515.72;;;-0.97;49.75
63700;BME280;49845;47.130;142.766;2023-02-23T03:28:40;100524.53;;;-0.89;50.11
63700;BME280;49845;47.130;142.766;2023-02-23T03:31:36;100523.53;;;-0.94;49.12
63700;BME280;49845;47.130;142.766;2023-02-23T03:34:29;100516.59;;;-1.20;47.95
63700;BME280;49845;47.130;142.766;2023-02-23T03:37:20;100516.41;;;-1.26;48.66
63700;BME280;49845;47.130;142.766;2023-02-23T03:40:14;100510.84;;;-1.39;49.52
63700;BME280;49845;47.130;142.766;2023-02-23T03:43:10;100477.78;;;-1.55;49.84
63700;BME280;49845;47.130;142.766;2023-02-23T03:46:00;100507.78;;;-1.28;50.36
63700;BME280;49845;47.130;142.766;2023-02-23T03:48:49;100481.50;;;-1.47;48.17
63700;BME280;49845;47.130;142.766;2023-02-23T03:51:40;100493.50;;;-1.46;46.91
63700;BME280;49845;47.130;142.766;2023-02-23T03:54:33;100494.38;;;-1.21;46.82
63700;BME280;49845;47.130;142.766;2023-02-23T03:57:23;100490.53;;;-1.09;46.43
63700;BME280;49845;47.130;142.766;2023-02-23T04:00:18;100496.50;;;-0.82;46.02
63700;BME280;49845;47.130;142.766;2023-02-23T04:03:08;100491.13;;;-0.90;45.11
63700;BME280;49845;47.130;142.766;2023-02-23T04:05:57;100477.97;;;-1.01;46.10
63700;BME280;49845;47.130;142.766;2023-02-23T04:08:45;100474.59;;;-0.73;45.67
63700;BME280;49845;47.130;142.766;2023-02-23T04:11:39;100489.34;;;-0.67;44.73
63700;BME280;49845;47.130;142.766;2023-02-23T04:14:35;100487.09;;;-1.09;44.61
63700;BME280;49845;47.130;142.766;2023-02-23T04:17:09;100482.03;;;-1.32;45.09
63700;BME280;49845;47.130;142.766;2023-02-23T04:19:38;100464.53;;;-1.67;45.25
63700;BME280;49845;47.130;142.766;2023-02-23T04:22:18;100474.63;;;-1.48;45.12
63700;BME280;49845;47.130;142.766;2023-02-23T04:24:49;100432.84;;;-1.45;45.32
63700;BME280;49845;47.130;142.766;2023-02-23T04:27:20;100432.41;;;-1.34;44.48
63700;BME280;49845;47.130;142.766;2023-02-23T04:29:50;100471.88;;;-1.28;44.13
63700;BME280;49845;47.130;142.766;2023-02-23T04:32:22;100465.69;;;-1.59;44.11
63700;BME280;49845;47.130;142.766;2023-02-23T04:34:53;100463.63;;;-1.69;45.67
63700;BME280;49845;47.130;142.766;2023-02-23T04:37:24;100424.78;;;-1.80;44.95
63700;BME280;49845;47.130;142.766;2023-02-23T04:39:54;100452.59;;;-1.43;44.37
63700;BME280;49845;47.130;142.766;2023-02-23T04:42:25;100453.09;;;-1.27;44.79
63700;BME280;49845;47.130;142.766;2023-02-23T04:44:56;100453.94;;;-1.28;43.60
63700;BME280;49845;47.130;142.766;2023-02-23T04:47:28;100445.41;;;-1.53;43.40
63700;BME280;49845;47.130;142.766;2023-02-23T04:49:58;100438.31;;;-1.60;44.12
63700;BME280;49845;47.130;142.766;2023-02-23T04:52:29;100451.88;;;-1.63;44.93
63700;BME280;49845;47.130;142.766;2023-02-23T04:55:00;100449.53;;;-1.81;40.71
63700;BME280;49845;47.130;142.766;2023-02-23T04:57:31;100414.88;;;-2.40;40.64
63700;BME280;49845;47.130;142.766;2023-02-23T05:00:02;100451.63;;;-2.61;40.84
63700;BME280;49845;47.130;142.766;2023-02-23T05:02:34;100451.91;;;-2.96;42.23
63700;BME280;49845;47.130;142.766;2023-02-23T05:05:05;100410.34;;;-3.54;42.64
63700;BME280;49845;47.130;142.766;2023-02-23T05:07:36;100454.81;;;-3.29;41.92
63700;BME280;49845;47.130;142.766;2023-02-23T05:10:08;100461.13;;;-3.21;42.68
63700;BME280;49845;47.130;142.766;2023-02-23T05:12:39;100457.63;;;-3.23;43.66
63700;BME280;49845;47.130;142.766;2023-02-23T05:15:11;100402.50;;;-3.37;43.56
63700;BME280;49845;47.130;142.766;2023-02-23T05:17:43;100467.81;;;-3.04;42.64
63700;BME280;49845;47.130;142.766;2023-02-23T05:20:14;100466.47;;;-3.15;42.07
63700;BME280;49845;47.130;142.766;2023-02-23T05:22:45;100463.53;;;-3.24;42.57
63700;BME280;49845;47.130;142.766;2023-02-23T05:25:15;100473.44;;;-3.32;42.17
63700;BME280;49845;47.130;142.766;2023-02-23T05:27:46;100466.91;;;-3.44;41.37
63700;BME280;49845;47.130;142.766;2023-02-23T05:30:17;100468.91;;;-3.37;41.01
63700;BME280;49845;47.130;142.766;2023-02-23T05:32:50;100473.50;;;-3.50;41.69
63700;BME280;49845;47.130;142.766;2023-02-23T05:35:21;100470.44;;;-3.81;40.83
63700;BME280;49845;47.130;142.766;2023-02-23T05:37:52;100469.44;;;-4.03;42.13
63700;BME280;49845;47.130;142.766;2023-02-23T05:40:22;100464.09;;;-4.27;43.05
63700;BME280;49845;47.130;142.766;2023-02-23T05:42:58;100473.28;;;-4.30;44.07
63700;BME280;49845;47.130;142.766;2023-02-23T05:45:28;100471.34;;;-4.36;44.15
63700;BME280;49845;47.130;142.766;2023-02-23T05:48:01;100469.50;;;-4.39;44.19
63700;BME280;49845;47.130;142.766;2023-02-23T05:50:33;100473.34;;;-4.47;43.91
63700;BME280;49845;47.130;142.766;2023-02-23T05:53:04;100477.22;;;-4.55;45.10
63700;BME280;49845;47.130;142.766;2023-02-23T05:55:36;100471.69;;;-4.64;45.01
63700;BME280;49845;47.130;142.766;2023-02-23T05:58:07;100439.84;;;-4.72;46.07
63700;BME280;49845;47.130;142.766;2023-02-23T06:00:38;100472.56;;;-4.46;46.84
63700;BME280;49845;47.130;142.766;2023-02-23T06:03:11;100476.06;;;-4.44;46.99
63700;BME280;49845;47.130;142.766;2023-02-23T06:05:41;100484.81;;;-4.39;45.83
63700;BME280;49845;47.130;142.766;2023-02-23T06:08:12;100479.25;;;-4.30;46.08
63700;BME280;49845;47.130;142.766;2023-02-23T06:10:42;100486.31;;;-4.24;44.90
63700;BME280;49845;47.130;142.766;2023-02-23T06:13:13;100483.94;;;-4.21;44.78
63700;BME280;49845;47.130;142.766;2023-02-23T06:15:44;100488.59;;;-4.30;44.22
63700;BME280;49845;47.130;142.766;2023-02-23T06:18:16;100487.94;;;-4.26;44.97
63700;BME280;49845;47.130;142.766;2023-02-23T06:20:49;100488.72;;;-4.27;44.36
63700;BME280;49845;47.130;142.766;2023-02-23T06:23:20;100492.09;;;-4.28;44.52
63700;BME280;49845;47.130;142.766;2023-02-23T06:25:50;100479.28;;;-4.48;44.02
63700;BME280;49845;47.130;142.766;2023-02-23T06:28:22;100488.16;;;-4.40;44.42
63700;BME280;49845;47.130;142.766;2023-02-23T06:30:53;100479.00;;;-4.54;44.97
63700;BME280;49845;47.130;142.766;2023-02-23T06:33:26;100491.75;;;-4.54;45.00
63700;BME280;49845;47.130;142.766;2023-02-23T06:35:57;100494.13;;;-4.57;44.98
63700;BME280;49845;47.130;142.766;2023-02-23T06:38:28;100498.22;;;-4.61;45.74
63700;BME280;49845;47.130;142.766;2023-02-23T06:40:58;100497.13;;;-4.66;44.35
63700;BME280;49845;47.130;142.766;2023-02-23T06:43:29;100493.53;;;-4.69;45.98
63700;BME280;49845;47.130;142.766;2023-02-23T06:45:59;100507.56;;;-4.61;45.16
63700;BME280;49845;47.130;142.766;2023-02-23T06:48:35;100497.50;;;-4.58;46.44
63700;BME280;49845;47.130;142.766;2023-02-23T06:51:05;100498.63;;;-4.69;46.13
63700;BME280;49845;47.130;142.766;2023-02-23T06:53:36;100503.91;;;-4.66;46.71
63700;BME280;49845;47.130;142.766;2023-02-23T06:56:07;100511.09;;;-4.75;46.16
63700;BME280;49845;47.130;142.766;2023-02-23T06:58:39;100510.00;;;-4.81;46.29
63700;BME280;49845;47.130;142.766;2023-02-23T07:01:10;100515.59;;;-4.88;46.42
63700;BME280;49845;47.130;142.766;2023-02-23T07:03:44;100515.13;;;-4.97;46.48
63700;BME280;49845;47.130;142.766;2023-02-23T07:06:19;100511.66;;;-4.99;46.75
63700;BME280;49845;47.130;142.766;2023-02-23T07:08:50;100473.47;;;-5.32;46.34
63700;BME280;49845;47.130;142.766;2023-02-23T07:11:21;100514.44;;;-5.11;47.03
63700;BME280;49845;47.130;142.766;2023-02-23T07:13:51;100511.19;;;-5.08;47.00
63700;BME280;49845;47.130;142.766;2023-02-23T07:16:23;100465.53;;;-5.38;48.44
63700;BME280;49845;47.130;142.766;2023-02-23T07:18:56;100520.84;;;-5.19;47.59
63700;BME280;49845;47.130;142.766;2023-02-23T07:21:27;100529.97;;;-5.23;48.03
63700;BME280;49845;47.130;142.766;2023-02-23T07:24:00;100519.72;;;-5.24;48.47
63700;BME280;49845;47.130;142.766;2023-02-23T07:26:32;100512.63;;;-5.30;48.51
63700;BME280;49845;47.130;142.766;2023-02-23T07:29:02;100525.13;;;-5.34;48.43
63700;BME280;49845;47.130;142.766;2023-02-23T07:31:33;100522.50;;;-5.36;48.68
63700;BME280;49845;47.130;142.766;2023-02-23T07:34:07;100460.03;;;-5.96;48.20
63700;BME280;49845;47.130;142.766;2023-02-23T07:36:38;100533.50;;;-5.53;48.98
63700;BME280;49845;47.130;142.766;2023-02-23T07:39:09;100530.00;;;-5.55;49.17
63700;BME280;49845;47.130;142.766;2023-02-23T07:41:40;100535.09;;;-5.55;49.45
63700;BME280;49845;47.130;142.766;2023-02-23T07:44:13;100531.56;;;-5.57;49.34
63700;BME280;49845;47.130;142.766;2023-02-23T07:46:43;100531.09;;;-5.67;49.74
63700;BME280;49845;47.130;142.766;2023-02-23T07:49:16;100541.09;;;-5.70;49.17
63700;BME280;49845;47.130;142.766;2023-02-23T07:51:46;100549.06;;;-5.80;50.35
63700;BME280;49845;47.130;142.766;2023-02-23T07:54:17;100531.72;;;-6.03;49.91
63700;BME280;49845;47.130;142.766;2023-02-23T07:56:49;100556.19;;;-6.05;50.22
63700;BME280;49845;47.130;142.766;2023-02-23T07:59:19;100552.16;;;-6.17;51.08
63700;BME280;49845;47.130;142.766;2023-02-23T08:01:50;100528.72;;;-6.42;51.14
63700;BME280;49845;47.130;142.766;2023-02-23T08:04:41;100552.91;;;-6.34;52.63
63700;BME280;49845;47.130;142.766;2023-02-23T08:07:12;100555.72;;;-6.44;52.73
63700;BME280;49845;47.130;142.766;2023-02-23T08:09:44;100559.94;;;-6.60;53.06
63700;BME280;49845;47.130;142.766;2023-02-23T08:12:15;100487.59;;;-7.11;53.63
63700;BME280;49845;47.130;142.766;2023-02-23T08:14:47;100572.31;;;-6.66;55.19
63700;BME280;49845;47.130;142.766;2023-02-23T08:17:18;100576.53;;;-6.81;55.34
63700;BME280;49845;47.130;142.766;2023-02-23T08:19:52;100571.25;;;-7.27;53.12
63700;BME280;49845;47.130;142.766;2023-02-23T08:22:26;100543.75;;;-7.91;52.83
63700;BME280;49845;47.130;142.766;2023-02-23T08:25:14;100587.44;;;-8.21;54.61
63700;BME280;49845;47.130;142.766;2023-02-23T08:27:46;100589.41;;;-8.71;56.21
63700;BME280;49845;47.130;142.766;2023-02-23T08:30:20;100576.84;;;-9.07;58.19
63700;BME280;49845;47.130;142.766;2023-02-23T08:32:52;100587.53;;;-9.37;59.40
63700;BME280;49845;47.130;142.766;2023-02-23T08:35:25;100540.22;;;-10.00;60.37
63700;BME280;49845;47.130;142.766;2023-02-23T08:38:00;100588.34;;;-9.98;61.41
63700;BME280;49845;47.130;142.766;2023-02-23T08:40:32;100591.88;;;-10.08;62.44
63700;BME280;49845;47.130;142.766;2023-02-23T08:43:04;100603.63;;;-10.20;63.04
63700;BME280;49845;47.130;142.766;2023-02-23T08:45:36;100605.31;;;-10.32;63.62
63700;BME280;49845;47.130;142.766;2023-02-23T08:48:08;100605.38;;;-10.19;64.59
63700;BME280;49845;47.130;142.766;2023-02-23T08:50:41;100605.53;;;-10.29;64.81
63700;BME280;49845;47.130;142.766;2023-02-23T08:53:17;100573.00;;;-10.72;64.95
63700;BME280;49845;47.130;142.766;2023-02-23T08:55:55;100560.13;;;-10.87;65.42
63700;BME280;49845;47.130;142.766;2023-02-23T08:58:28;100527.50;;;-11.07;65.51
63700;BME280;49845;47.130;142.766;2023-02-23T09:01:01;100616.16;;;-10.57;65.43
63700;BME280;49845;47.130;142.766;2023-02-23T09:03:33;100611.22;;;-10.67;65.88
63700;BME280;49845;47.130;142.766;2023-02-23T09:06:11;100623.06;;;-10.66;65.52
63700;BME280;49845;47.130;142.766;2023-02-23T09:08:43;100617.56;;;-10.72;65.62
63700;BME280;49845;47.130;142.766;2023-02-23T09:11:15;100620.63;;;-10.76;66.27
63700;BME280;49845;47.130;142.766;2023-02-23T09:13:47;100579.50;;;-11.09;66.39
63700;BME280;49845;47.130;142.766;2023-02-23T09:16:18;100618.56;;;-11.04;66.67
63700;BME280;49845;47.130;142.766;2023-02-23T09:18:50;100613.69;;;-11.24;67.55
63700;BME280;49845;47.130;142.766;2023-02-23T09:21:24;100630.34;;;-11.26;68.31
63700;BME280;49845;47.130;142.766;2023-02-23T09:23:56;100633.16;;;-11.34;68.87
63700;BME280;49845;47.130;142.766;2023-02-23T09:26:27;100635.22;;;-11.40;69.27
63700;BME280;49845;47.130;142.766;2023-02-23T09:29:01;100589.97;;;-11.70;70.42
63700;BME280;49845;47.130;142.766;2023-02-23T09:31:32;100617.91;;;-11.57;70.76
63700;BME280;49845;47.130;142.766;2023-02-23T09:34:07;100632.47;;;-11.43;70.75
63700;BME280;49845;47.130;142.766;2023-02-23T09:36:40;100640.50;;;-11.37;70.61
63700;BME280;49845;47.130;142.766;2023-02-23T09:39:11;100638.19;;;-11.34;70.46
63700;BME280;49845;47.130;142.766;2023-02-23T09:41:59;100649.81;;;-11.36;70.54
63700;BME280;49845;47.130;142.766;2023-02-23T09:44:52;100644.75;;;-11.36;70.33
63700;BME280;49845;47.130;142.766;2023-02-23T09:47:35;100642.56;;;-11.43;70.39
63700;BME280;49845;47.130;142.766;2023-02-23T09:50:16;100615.69;;;-11.64;70.49
63700;BME280;49845;47.130;142.766;2023-02-23T09:52:55;100641.28;;;-11.70;70.35
63700;BME280;49845;47.130;142.766;2023-02-23T09:55:29;100650.09;;;-11.65;70.81
63700;BME280;49845;47.130;142.766;2023-02-23T09:58:06;100642.91;;;-11.60;70.61
63700;BME280;49845;47.130;142.766;2023-02-23T10:00:42;100611.44;;;-11.76;70.72
63700;BME280;49845;47.130;142.766;2023-02-23T10:03:20;100653.66;;;-11.51;70.41
63700;BME280;49845;47.130;142.766;2023-02-23T10:06:00;100666.94;;;-11.32;70.69
63700;BME280;49845;47.130;142.766;2023-02-23T10:08:43;100652.38;;;-11.46;69.73
63700;BME280;49845;47.130;142.766;2023-02-23T10:11:25;100663.28;;;-11.57;69.70
63700;BME280;49845;47.130;142.766;2023-02-23T10:14:12;100661.09;;;-11.75;69.71
63700;BME280;49845;47.130;142.766;2023-02-23T10:16:58;100667.06;;;-11.84;70.14
63700;BME280;49845;47.130;142.766;2023-02-23T10:19:40;100660.56;;;-11.92;70.12
63700;BME280;49845;47.130;142.766;2023-02-23T10:22:16;100666.28;;;-12.05;70.80
63700;BME280;49845;47.130;142.766;2023-02-23T10:24:55;100655.22;;;-12.18;71.16
63700;BME280;49845;47.130;142.766;2023-02-23T10:27:35;100660.25;;;-12.18;71.37
63700;BME280;49845;47.130;142.766;2023-02-23T10:30:17;100676.09;;;-12.08;72.15
63700;BME280;49845;47.130;142.766;2023-02-23T10:32:54;100663.66;;;-12.17;72.00
63700;BME280;49845;47.130;142.766;2023-02-23T10:35:29;100669.19;;;-12.21;71.70
63700;BME280;49845;47.130;142.766;2023-02-23T10:38:02;100681.91;;;-12.20;71.90
63700;BME280;49845;47.130;142.766;2023-02-23T10:40:35;100676.88;;;-12.20;71.94
63700;BME280;49845;47.130;142.766;2023-02-23T10:43:08;100662.28;;;-12.34;71.91
63700;BME280;49845;47.130;142.766;2023-02-23T10:45:44;100682.94;;;-12.28;72.21
63700;BME280;49845;47.130;142.766;2023-02-23T10:48:19;100661.19;;;-12.38;72.85
63700;BME280;49845;47.130;142.766;2023-02-23T10:50:54;100670.63;;;-12.35;73.22
63700;BME280;49845;47.130;142.766;2023-02-23T10:53:31;100680.78;;;-12.23;73.06
63700;BME280;49845;47.130;142.766;2023-02-23T10:56:08;100693.03;;;-12.28;73.13
63700;BME280;49845;47.130;142.766;2023-02-23T10:58:43;100663.56;;;-12.39;73.08
63700;BME280;49845;47.130;142.766;2023-02-23T11:01:30;100634.09;;;-12.50;73.06
63700;BME280;49845;47.130;142.766;2023-02-23T11:04:15;100687.88;;;-11.87;73.64
63700;BME280;49845;47.130;142.766;2023-02-23T11:06:50;100690.34;;;-11.77;73.30
63700;BME280;49845;47.130;142.766;2023-02-23T11:09:24;100695.09;;;-11.69;72.20
63700;BME280;49845;47.130;142.766;2023-02-23T11:12:18;100687.16;;;-11.96;71.24
63700;BME280;49845;47.130;142.766;2023-02-23T11:14:53;100643.88;;;-12.12;70.92
63700;BME280;49845;47.130;142.766;2023-02-23T11:17:28;100695.25;;;-12.00;70.66
63700;BME280;49845;47.130;142.766;2023-02-23T11:20:04;100692.44;;;-11.93;70.88
63700;BME280;49845;47.130;142.766;2023-02-23T11:22:36;100676.34;;;-12.05;70.57
63700;BME280;49845;47.130;142.766;2023-02-23T11:25:16;100695.56;;;-11.85;70.78
63700;BME280;49845;47.130;142.766;2023-02-23T11:27:50;100688.09;;;-11.84;71.26
63700;BME280;49845;47.130;142.766;2023-02-23T11:30:29;100699.13;;;-11.72;70.58
63700;BME280;49845;47.130;142.766;2023-02-23T11:33:05;100704.84;;;-11.84;69.24
63700;BME280;49845;47.130;142.766;2023-02-23T11:35:39;100655.78;;;-12.42;68.48
63700;BME280;49845;47.130;142.766;2023-02-23T11:38:19;100666.09;;;-12.70;67.92
63700;BME280;49845;47.130;142.766;2023-02-23T11:41:00;100693.66;;;-12.71;68.65
63700;BME280;49845;47.130;142.766;2023-02-23T11:43:33;100712.16;;;-12.71;69.65
63700;BME280;49845;47.130;142.766;2023-02-23T11:46:06;100710.41;;;-12.82;69.48
63700;BME280;49845;47.130;142.766;2023-02-23T11:48:46;100706.94;;;-13.13;69.03
63700;BME280;49845;47.130;142.766;2023-02-23T11:51:24;100700.63;;;-13.29;69.46
63700;BME280;49845;47.130;142.766;2023-02-23T11:53:57;100708.56;;;-13.14;70.13
63700;BME280;49845;47.130;142.766;2023-02-23T11:56:33;100674.03;;;-13.56;69.58
63700;BME280;49845;47.130;142.766;2023-02-23T11:59:16;100711.88;;;-13.05;70.46
63700;BME280;49845;47.130;142.766;2023-02-23T12:01:50;100711.88;;;-13.05;70.20
63700;BME280;49845;47.130;142.766;2023-02-23T12:04:28;100698.09;;;-13.39;69.71
63700;BME280;49845;47.130;142.766;2023-02-23T12:10:20;100717.09;;;-13.42;70.08
63700;BME280;49845;47.130;142.766;2023-02-23T12:13:02;100648.50;;;-14.00;69.56
63700;BME280;49845;47.130;142.766;2023-02-23T12:15:43;100718.31;;;-13.77;69.46
63700;BME280;49845;47.130;142.766;2023-02-23T12:18:28;100713.34;;;-13.85;70.08
63700;BME280;49845;47.130;142.766;2023-02-23T12:21:12;100724.63;;;-13.91;70.56
63700;BME280;49845;47.130;142.766;2023-02-23T12:23:45;100725.34;;;-14.02;70.56
63700;BME280;49845;47.130;142.766;2023-02-23T12:26:20;100715.19;;;-13.93;71.37
63700;BME280;49845;47.130;142.766;2023-02-23T12:28:58;100715.47;;;-13.90;71.69
63700;BME280;49845;47.130;142.766;2023-02-23T12:31:43;100719.91;;;-13.87;72.15
63700;BME280;49845;47.130;142.766;2023-02-23T12:34:20;100724.38;;;-13.94;72.33
63700;BME280;49845;47.130;142.766;2023-02-23T12:36:58;100713.44;;;-13.94;72.87
63700;BME280;49845;47.130;142.766;2023-02-23T12:39:35;100711.75;;;-14.04;72.71
63700;BME280;49845;47.130;142.766;2023-02-23T12:42:14;100714.25;;;-14.23;72.93
63700;BME280;49845;47.130;142.766;2023-02-23T12:44:52;100714.13;;;-14.24;73.34
63700;BME280;49845;47.130;142.766;2023-02-23T12:47:32;100720.50;;;-14.28;73.56
63700;BME280;49845;47.130;142.766;2023-02-23T12:50:08;100705.16;;;-14.31;73.74
63700;BME280;49845;47.130;142.766;2023-02-23T12:52:47;100682.16;;;-14.36;74.35
63700;BME280;49845;47.130;142.766;2023-02-23T12:55:34;100696.97;;;-14.39;74.91
63700;BME280;49845;47.130;142.766;2023-02-23T12:58:19;100716.25;;;-14.10;75.06
63700;BME280;49845;47.130;142.766;2023-02-23T13:00:55;100718.09;;;-13.88;74.97
63700;BME280;49845;47.130;142.766;2023-02-23T13:03:56;100714.56;;;-13.91;74.18
63700;BME280;49845;47.130;142.766;2023-02-23T13:06:32;100721.34;;;-14.00;73.22
63700;BME280;49845;47.130;142.766;2023-02-23T13:09:17;100708.91;;;-14.17;72.55
63700;BME280;49845;47.130;142.766;2023-02-23T13:12:02;100712.38;;;-14.06;72.72
63700;BME280;49845;47.130;142.766;2023-02-23T13:14:41;100714.47;;;-14.11;72.29
63700;BME280;49845;47.130;142.766;2023-02-23T13:17:27;100720.03;;;-14.05;72.46
63700;BME280;49845;47.130;142.766;2023-02-23T13:20:11;100729.00;;;-14.17;71.99
63700;BME280;49845;47.130;142.766;2023-02-23T13:22:57;100715.63;;;-14.26;72.71